createdAt,value
2022-11-22T00:00:57.784Z,-1.60
2022-11-22T00:03:27.403Z,-1.60
2022-11-22T00:05:54.075Z,-1.60
2022-11-22T00:08:23.988Z,-1.70
2022-11-22T00:10:51.297Z,-1.70
2022-11-22T00:13:23.216Z,-1.60
2022-11-22T00:16:03.854Z,-1.60
2022-11-22T00:18:36.328Z,-1.60
2022-11-22T00:21:07.549Z,-1.50
2022-11-22T00:23:34.542Z,-1.40
2022-11-22T00:26:01.267Z,-1.40
2022-11-22T00:28:29.105Z,-1.40
2022-11-22T00:30:58.321Z,-1.40
2022-11-22T00:33:26.376Z,-1.40
2022-11-22T00:36:01.797Z,-1.50
2022-11-22T00:38:29.999Z,-1.50
2022-11-22T00:40:56.688Z,-1.50
2022-11-22T00:43:25.537Z,-1.60
2022-11-22T00:45:52.585Z,-1.60
2022-11-22T00:48:19.312Z,-1.60
2022-11-22T00:50:48.998Z,-1.60
2022-11-22T00:53:15.691Z,-1.60
2022-11-22T00:55:42.481Z,-1.60
2022-11-22T00:58:11.908Z,-1.60
2022-11-22T01:00:38.612Z,-1.60
2022-11-22T01:03:13.016Z,-1.60
2022-11-22T01:05:39.946Z,-1.60
2022-11-22T01:08:06.666Z,-1.60
2022-11-22T01:10:35.717Z,-1.60
2022-11-22T01:13:08.095Z,-1.60
2022-11-22T01:15:36.997Z,-1.60
2022-11-22T01:20:54.499Z,-1.50
2022-11-22T01:23:23.241Z,-1.50
2022-11-22T01:25:50.428Z,-1.50
2022-11-22T01:28:18.053Z,-1.50
2022-11-22T01:30:44.942Z,-1.50
2022-11-22T01:33:11.819Z,-1.50
2022-11-22T01:35:48.961Z,-1.50
2022-11-22T01:38:15.730Z,-1.50
2022-11-22T01:40:42.575Z,-1.50
2022-11-22T01:43:26.605Z,-1.50
2022-11-22T01:45:58.625Z,-1.50
2022-11-22T01:48:50.833Z,-1.60
2022-11-22T01:51:37.246Z,-1.50
2022-11-22T01:54:10.168Z,-1.60
2022-11-22T01:56:47.996Z,-1.60
2022-11-22T01:59:19.234Z,-1.60
2022-11-22T02:01:48.712Z,-1.60
2022-11-22T02:04:19.538Z,-1.70
2022-11-22T02:07:10.361Z,-1.70
2022-11-22T02:09:42.512Z,-1.70
2022-11-22T02:12:11.450Z,-1.70
2022-11-22T02:14:42.057Z,-1.70
2022-11-22T02:17:11.568Z,-1.70
2022-11-22T02:19:50.153Z,-1.70
2022-11-22T02:22:31.192Z,-1.70
2022-11-22T02:25:05.807Z,-1.70
2022-11-22T02:27:32.562Z,-1.70
2022-11-22T02:30:01.668Z,-1.70
2022-11-22T02:32:28.364Z,-1.70
2022-11-22T02:34:55.017Z,-1.60
2022-11-22T02:37:25.882Z,-1.60
2022-11-22T02:39:58.575Z,-1.60
2022-11-22T02:42:26.873Z,-1.60
2022-11-22T02:44:53.577Z,-1.60
2022-11-22T02:47:20.298Z,-1.60
2022-11-22T02:49:47.005Z,-1.60
2022-11-22T02:52:18.152Z,-1.60
2022-11-22T02:54:45.364Z,-1.60
2022-11-22T02:57:13.064Z,-1.60
2022-11-22T02:59:39.788Z,-1.60
2022-11-22T03:02:06.438Z,-1.60
2022-11-22T03:04:33.092Z,-1.60
2022-11-22T03:07:00.132Z,-1.60
2022-11-22T03:09:27.972Z,-1.60
2022-11-22T03:11:55.143Z,-1.60
2022-11-22T03:14:22.431Z,-1.60
2022-11-22T03:16:49.868Z,-1.50
2022-11-22T03:19:16.709Z,-1.50
2022-11-22T03:21:43.720Z,-1.50
2022-11-22T03:24:11.437Z,-1.50
2022-11-22T03:26:39.066Z,-1.50
2022-11-22T03:29:05.757Z,-1.50
2022-11-22T03:31:32.526Z,-1.40
2022-11-22T03:33:59.186Z,-1.40
2022-11-22T03:36:25.848Z,-1.40
2022-11-22T03:38:52.629Z,-1.40
2022-11-22T03:41:19.300Z,-1.40
2022-11-22T03:43:45.965Z,-1.40
2022-11-22T03:46:17.118Z,-1.40
2022-11-22T03:48:43.843Z,-1.40
2022-11-22T03:51:10.687Z,-1.40
2022-11-22T03:53:37.965Z,-1.40
2022-11-22T03:56:05.593Z,-1.40
2022-11-22T03:58:33.059Z,-1.40
2022-11-22T04:00:59.859Z,-1.50
2022-11-22T04:03:26.805Z,-1.40
2022-11-22T04:05:53.520Z,-1.50
2022-11-22T04:08:20.377Z,-1.50
2022-11-22T04:10:49.244Z,-1.50
2022-11-22T04:13:15.978Z,-1.50
2022-11-22T04:15:42.655Z,-1.50
2022-11-22T04:18:11.035Z,-1.50
2022-11-22T04:20:38.049Z,-1.50
2022-11-22T04:23:07.434Z,-1.40
2022-11-22T04:25:37.348Z,-1.40
2022-11-22T04:28:05.583Z,-1.40
2022-11-22T04:30:33.047Z,-1.30
2022-11-22T04:32:59.739Z,-1.30
2022-11-22T04:35:26.410Z,-1.30
2022-11-22T04:37:55.970Z,-1.30
2022-11-22T04:40:22.616Z,-1.30
2022-11-22T04:42:49.234Z,-1.30
2022-11-22T04:45:15.915Z,-1.20
2022-11-22T04:47:46.162Z,-1.20
2022-11-22T04:50:16.754Z,-1.10
2022-11-22T04:52:43.376Z,-1.10
2022-11-22T04:55:10.044Z,-1.10
2022-11-22T04:57:36.712Z,-1.10
2022-11-22T05:00:04.624Z,-1.10
2022-11-22T05:02:31.290Z,-1.10
2022-11-22T05:04:57.914Z,-1.10
2022-11-22T05:07:24.732Z,-1.10
2022-11-22T05:09:51.465Z,-1.00
2022-11-22T05:12:18.198Z,-1.00
2022-11-22T05:14:44.893Z,-1.00
2022-11-22T05:17:13.362Z,-1.00
2022-11-22T05:19:43.603Z,-0.90
2022-11-22T05:22:13.014Z,-0.90
2022-11-22T05:24:39.707Z,-0.90
2022-11-22T05:27:06.453Z,-0.90
2022-11-22T05:29:33.108Z,-0.90
2022-11-22T05:31:59.828Z,-0.90
2022-11-22T05:34:26.806Z,-0.80
2022-11-22T05:36:53.623Z,-0.80
2022-11-22T05:39:20.336Z,-0.80
2022-11-22T05:41:47.098Z,-0.80
2022-11-22T05:44:13.765Z,-0.80
2022-11-22T05:46:40.455Z,-0.80
2022-11-22T05:49:07.169Z,-0.80
2022-11-22T05:51:35.187Z,-0.80
2022-11-22T05:54:02.636Z,-0.80
2022-11-22T05:56:29.366Z,-0.70
2022-11-22T05:58:56.067Z,-0.70
2022-11-22T06:01:24.286Z,-0.70
2022-11-22T06:03:51.543Z,-0.70
2022-11-22T06:06:18.421Z,-0.70
2022-11-22T06:08:46.085Z,-0.70
2022-11-22T06:11:23.754Z,-0.70
2022-11-22T06:13:56.708Z,-0.70
2022-11-22T06:16:24.246Z,-0.70
2022-11-22T06:18:51.317Z,-0.70
2022-11-22T06:21:21.162Z,-0.70
2022-11-22T06:23:47.826Z,-0.70
2022-11-22T06:26:17.639Z,-0.60
2022-11-22T06:28:45.244Z,-0.60
2022-11-22T06:31:26.082Z,-0.60
2022-11-22T06:33:57.968Z,-0.60
2022-11-22T06:36:27.165Z,-0.50
2022-11-22T06:38:54.674Z,-0.50
2022-11-22T06:41:26.415Z,-0.50
2022-11-22T06:43:54.905Z,-0.50
2022-11-22T06:46:24.637Z,-0.40
2022-11-22T06:48:51.846Z,-0.40
2022-11-22T06:51:20.845Z,-0.40
2022-11-22T06:53:49.221Z,-0.40
2022-11-22T06:56:18.737Z,-0.40
2022-11-22T06:58:46.143Z,-0.40
2022-11-22T07:01:24.673Z,-0.40
2022-11-22T07:03:52.232Z,-0.40
2022-11-22T07:06:19.511Z,-0.40
2022-11-22T07:08:46.846Z,-0.40
2022-11-22T07:11:19.683Z,-0.30
2022-11-22T07:13:47.315Z,-0.30
2022-11-22T07:16:17.700Z,-0.30
2022-11-22T07:18:44.831Z,-0.30
2022-11-22T07:21:14.828Z,-0.30
2022-11-22T07:23:43.481Z,-0.20
2022-11-22T07:26:12.030Z,-0.20
2022-11-22T07:28:39.285Z,-0.20
2022-11-22T07:31:08.490Z,-0.20
2022-11-22T07:33:35.515Z,-0.20
2022-11-22T07:36:11.074Z,-0.20
2022-11-22T07:38:37.867Z,-0.10
2022-11-22T07:41:05.430Z,-0.20
2022-11-22T07:43:32.351Z,-0.20
2022-11-22T07:46:06.544Z,-0.20
2022-11-22T07:48:33.582Z,-0.20
2022-11-22T07:51:07.696Z,-0.10
2022-11-22T07:53:34.953Z,-0.10
2022-11-22T07:56:05.733Z,0.00
2022-11-22T07:58:33.860Z,0.00
2022-11-22T08:01:08.987Z,0.10
2022-11-22T08:03:36.525Z,0.10
2022-11-22T08:06:05.305Z,0.10
2022-11-22T08:08:32.865Z,0.10
2022-11-22T08:10:59.745Z,0.20
2022-11-22T08:13:27.167Z,0.20
2022-11-22T08:15:55.182Z,0.20
2022-11-22T08:18:23.136Z,0.30
2022-11-22T08:20:49.810Z,0.30
2022-11-22T08:23:16.516Z,0.40
2022-11-22T08:25:43.197Z,0.40
2022-11-22T08:28:09.827Z,0.40
2022-11-22T08:30:36.462Z,0.40
2022-11-22T08:33:03.165Z,0.40
2022-11-22T08:35:29.839Z,0.40
2022-11-22T08:37:57.486Z,0.50
2022-11-22T08:40:24.404Z,0.50
2022-11-22T08:42:54.185Z,0.50
2022-11-22T08:45:20.878Z,0.50
2022-11-22T08:47:47.888Z,0.50
2022-11-22T08:50:15.109Z,0.50
2022-11-22T08:52:41.768Z,0.60
2022-11-22T08:55:08.922Z,0.60
2022-11-22T08:57:35.668Z,0.60
2022-11-22T09:00:02.598Z,0.70
2022-11-22T09:02:29.296Z,0.60
2022-11-22T09:04:58.470Z,0.60
2022-11-22T09:10:12.026Z,0.70
2022-11-22T09:12:38.721Z,0.70
2022-11-22T09:15:05.838Z,0.70
2022-11-22T09:17:32.514Z,0.70
2022-11-22T09:19:59.222Z,0.70
2022-11-22T09:22:28.626Z,0.70
2022-11-22T09:24:55.554Z,0.70
2022-11-22T09:27:22.271Z,0.80
2022-11-22T09:29:49.055Z,0.80
2022-11-22T09:32:16.121Z,0.80
2022-11-22T09:34:45.580Z,0.90
2022-11-22T09:37:12.416Z,0.90
2022-11-22T09:39:46.749Z,0.90
2022-11-22T09:42:37.121Z,1.00
2022-11-22T09:45:35.456Z,1.00
2022-11-22T09:48:27.602Z,1.00
2022-11-22T09:51:10.205Z,1.00
2022-11-22T09:53:44.076Z,1.00
2022-11-22T09:56:15.165Z,1.00
2022-11-22T09:59:05.566Z,1.00
2022-11-22T10:02:18.588Z,1.10
2022-11-22T10:04:54.478Z,1.10
2022-11-22T10:07:30.431Z,1.20
2022-11-22T10:10:16.784Z,1.20
2022-11-22T10:12:55.433Z,1.20
2022-11-22T10:15:34.039Z,1.20
2022-11-22T10:18:16.112Z,1.10
2022-11-22T10:20:48.594Z,1.10
2022-11-22T10:23:22.376Z,1.10
2022-11-22T10:26:00.227Z,1.10
2022-11-22T10:28:42.871Z,1.10
2022-11-22T10:31:16.332Z,1.20
2022-11-22T10:34:04.582Z,1.20
2022-11-22T10:36:53.292Z,1.20
2022-11-22T10:39:31.457Z,1.20
2022-11-22T10:42:28.281Z,1.20
2022-11-22T10:45:12.852Z,1.20
2022-11-22T10:47:52.716Z,1.20
2022-11-22T10:50:41.486Z,1.20
2022-11-22T10:53:26.252Z,1.30
2022-11-22T10:56:11.742Z,1.30
2022-11-22T10:58:57.089Z,1.30
2022-11-22T11:01:56.195Z,1.40
2022-11-22T11:04:24.344Z,1.50
2022-11-22T11:07:11.503Z,1.50
2022-11-22T11:12:54.976Z,1.60
2022-11-22T11:15:28.208Z,1.70
2022-11-22T11:18:00.913Z,1.70
2022-11-22T11:20:31.166Z,1.70
2022-11-22T11:23:14.220Z,1.80
2022-11-22T11:25:46.462Z,1.80
2022-11-22T11:28:17.440Z,1.90
2022-11-22T11:30:59.175Z,1.90
2022-11-22T11:33:34.540Z,1.90
2022-11-22T11:36:05.932Z,2.00
2022-11-22T11:38:44.604Z,2.00
2022-11-22T11:41:25.558Z,2.10
2022-11-22T11:43:54.456Z,2.10
2022-11-22T11:46:28.957Z,2.20
2022-11-22T11:49:09.494Z,2.20
2022-11-22T11:51:39.371Z,2.20
2022-11-22T11:54:13.381Z,2.20
2022-11-22T11:56:52.459Z,2.20
2022-11-22T11:59:35.603Z,2.20
2022-11-22T12:02:17.048Z,2.20
2022-11-22T12:04:49.734Z,2.20
2022-11-22T12:07:20.611Z,2.20
2022-11-22T12:09:49.981Z,2.20
2022-11-22T12:12:44.475Z,2.20
2022-11-22T12:15:21.057Z,2.30
2022-11-22T12:17:54.535Z,2.20
2022-11-22T12:20:45.801Z,2.20
2022-11-22T12:23:30.060Z,2.20
2022-11-22T12:25:58.294Z,2.20
2022-11-22T12:28:27.777Z,2.20
2022-11-22T12:34:01.041Z,2.20
2022-11-22T12:36:38.909Z,2.20
2022-11-22T12:39:08.510Z,2.30
2022-11-22T12:41:36.422Z,2.30
2022-11-22T12:44:06.916Z,2.30
2022-11-22T12:46:42.014Z,2.30
2022-11-22T12:48:23.306Z,2.20
2022-11-22T12:49:14.226Z,2.30
2022-11-22T12:52:13.231Z,2.30
2022-11-22T12:55:16.149Z,2.30
2022-11-22T12:58:26.949Z,2.30
2022-11-22T13:01:05.661Z,2.30
2022-11-22T13:03:57.464Z,2.30
2022-11-22T13:06:27.678Z,2.30
2022-11-22T13:09:09.970Z,2.30
2022-11-22T13:11:39.424Z,2.30
2022-11-22T13:14:38.608Z,2.30
2022-11-22T13:17:14.381Z,2.40
2022-11-22T13:19:46.837Z,2.40
2022-11-22T13:22:50.766Z,2.30
2022-11-22T13:25:50.757Z,2.30
2022-11-22T13:28:26.634Z,2.30
2022-11-22T13:31:07.457Z,2.30
2022-11-22T13:33:36.787Z,2.30
2022-11-22T13:36:23.133Z,2.30
2022-11-22T13:38:55.124Z,2.30
2022-11-22T13:41:36.297Z,2.30
2022-11-22T13:44:21.760Z,2.30
2022-11-22T13:47:04.354Z,2.30
2022-11-22T13:49:42.381Z,2.30
2022-11-22T13:52:16.395Z,2.30
2022-11-22T13:54:52.502Z,2.20
2022-11-22T13:57:42.112Z,2.20
2022-11-22T14:00:12.033Z,2.30
2022-11-22T14:02:47.595Z,2.30
2022-11-22T14:05:40.944Z,2.30
2022-11-22T14:08:37.146Z,2.30
2022-11-22T14:11:29.114Z,2.30
2022-11-22T14:14:20.838Z,2.30
2022-11-22T14:16:54.268Z,2.30
2022-11-22T14:19:53.429Z,2.30
2022-11-22T14:22:29.646Z,2.30
2022-11-22T14:25:25.653Z,2.30
2022-11-22T14:28:01.899Z,2.20
2022-11-22T14:30:46.657Z,2.30
2022-11-22T14:33:19.375Z,2.20
2022-11-22T14:36:07.555Z,2.20
2022-11-22T14:38:44.850Z,2.20
2022-11-22T14:41:26.541Z,2.30
2022-11-22T14:44:03.619Z,2.30
2022-11-22T14:46:55.776Z,2.20
2022-11-22T14:49:43.322Z,2.20
2022-11-22T14:52:25.614Z,2.20
2022-11-22T14:55:05.648Z,2.20
2022-11-22T14:57:34.754Z,2.20
2022-11-22T15:00:19.880Z,2.20
2022-11-22T15:03:05.051Z,2.20
2022-11-22T15:09:20.800Z,2.20
2022-11-22T15:09:33.369Z,2.20
2022-11-22T15:11:52.181Z,2.10
2022-11-22T15:14:52.635Z,2.10
2022-11-22T15:57:33.240Z,2.20
2022-11-22T16:00:00.896Z,2.20
2022-11-22T16:02:30.247Z,2.20
2022-11-22T16:06:06.775Z,2.20
2022-11-22T16:07:51.407Z,2.20
2022-11-22T16:10:41.235Z,2.20
2022-11-22T16:13:20.658Z,2.20
2022-11-22T16:16:11.525Z,2.20
2022-11-22T16:18:43.753Z,2.20
2022-11-22T16:21:10.547Z,2.20
2022-11-22T16:23:38.674Z,2.20
2022-11-22T16:26:20.156Z,2.20
2022-11-22T16:28:48.374Z,2.20
2022-11-22T16:31:26.135Z,2.20
2022-11-22T16:33:54.247Z,2.20
2022-11-22T16:36:23.244Z,2.20
2022-11-22T16:38:50.085Z,2.20
2022-11-22T16:41:25.760Z,2.10
2022-11-22T16:43:56.359Z,2.20
2022-11-22T16:46:23.050Z,2.20
2022-11-22T16:48:50.090Z,2.20
2022-11-22T16:51:22.728Z,2.10
2022-11-22T16:53:50.626Z,2.10
2022-11-22T16:56:18.434Z,2.10
2022-11-22T16:58:46.037Z,2.10
2022-11-22T17:01:20.802Z,2.10
2022-11-22T17:03:49.413Z,2.10
2022-11-22T17:06:19.052Z,2.00
2022-11-22T17:08:50.176Z,2.00
2022-11-22T17:11:19.962Z,2.00
2022-11-22T17:13:47.632Z,2.00
2022-11-22T17:16:14.992Z,2.00
2022-11-22T17:18:41.673Z,2.10
2022-11-22T17:21:20.415Z,2.10
2022-11-22T17:23:48.147Z,2.10
2022-11-22T17:26:14.835Z,2.10
2022-11-22T17:28:41.500Z,2.10
2022-11-22T17:31:16.859Z,2.10
2022-11-22T17:33:43.786Z,2.10
2022-11-22T17:36:24.077Z,2.10
2022-11-22T17:38:50.803Z,2.10
2022-11-22T17:41:18.358Z,2.10
2022-11-22T17:43:45.351Z,2.20
2022-11-22T17:46:12.032Z,2.10
2022-11-22T17:48:38.719Z,2.10
2022-11-22T17:51:07.002Z,2.10
2022-11-22T17:53:33.908Z,2.10
2022-11-22T17:56:10.346Z,2.10
2022-11-22T17:58:37.979Z,2.10
2022-11-22T18:01:11.136Z,2.10
2022-11-22T18:03:38.751Z,2.10
2022-11-22T18:06:06.140Z,2.10
2022-11-22T18:08:33.439Z,2.10
2022-11-22T18:11:01.045Z,2.10
2022-11-22T18:13:30.025Z,2.10
2022-11-22T18:16:03.188Z,2.10
2022-11-22T18:18:55.587Z,2.10
2022-11-22T18:21:17.899Z,2.10
2022-11-22T18:23:44.992Z,2.10
2022-11-22T18:29:32.407Z,2.00
2022-11-22T18:31:52.340Z,2.10
2022-11-22T18:34:20.209Z,2.10
2022-11-22T18:36:55.312Z,2.10
2022-11-22T18:39:23.246Z,2.20
2022-11-22T18:41:49.904Z,2.20
2022-11-22T18:44:17.137Z,2.20
2022-11-22T18:46:43.885Z,2.20
2022-11-22T18:49:10.647Z,2.20
2022-11-22T18:51:37.405Z,2.20
2022-11-22T18:54:04.277Z,2.20
2022-11-22T18:56:31.014Z,2.20
2022-11-22T18:58:57.694Z,2.20
2022-11-22T19:01:24.458Z,2.20
2022-11-22T19:03:51.212Z,2.20
2022-11-22T19:06:19.238Z,2.20
2022-11-22T19:08:47.039Z,2.20
2022-11-22T19:11:14.308Z,2.10
2022-11-22T19:13:42.589Z,2.20
2022-11-22T19:16:19.295Z,2.10
2022-11-22T19:18:46.038Z,2.20
2022-11-22T19:21:15.078Z,2.20
2022-11-22T19:23:41.879Z,2.20
2022-11-22T19:26:14.672Z,2.10
2022-11-22T19:28:42.404Z,2.20
2022-11-22T19:31:13.544Z,2.20
2022-11-22T19:33:40.803Z,2.20
2022-11-22T19:36:17.818Z,2.20
2022-11-22T19:38:45.320Z,2.10
2022-11-22T19:41:14.415Z,2.20
2022-11-22T19:43:41.229Z,2.20
2022-11-22T19:46:08.127Z,2.20
2022-11-22T19:48:35.355Z,2.10
2022-11-22T19:51:13.120Z,2.10
2022-11-22T19:53:40.578Z,2.10
2022-11-22T19:56:14.242Z,2.10
2022-11-22T19:58:41.335Z,2.10
2022-11-22T20:01:13.429Z,2.10
2022-11-22T20:03:41.561Z,2.20
2022-11-22T20:06:10.571Z,2.20
2022-11-22T20:08:37.856Z,2.20
2022-11-22T20:11:07.521Z,2.20
2022-11-22T20:13:36.134Z,2.20
2022-11-22T20:16:17.508Z,2.20
2022-11-22T20:18:44.165Z,2.20
2022-11-22T20:21:11.436Z,2.20
2022-11-22T20:23:38.643Z,2.20
2022-11-22T20:26:10.751Z,2.20
2022-11-22T20:28:42.120Z,2.20
2022-11-22T20:31:17.441Z,2.20
2022-11-22T20:33:46.758Z,2.30
2022-11-22T20:36:22.036Z,2.30
2022-11-22T20:38:49.619Z,2.20
2022-11-22T20:41:18.663Z,2.20
2022-11-22T20:43:45.891Z,2.20
2022-11-22T20:46:15.155Z,2.20
2022-11-22T20:48:43.877Z,2.30
2022-11-22T20:51:13.151Z,2.30
2022-11-22T20:53:40.603Z,2.30
2022-11-22T20:56:07.682Z,2.30
2022-11-22T20:58:34.313Z,2.30
2022-11-22T21:01:08.337Z,2.30
2022-11-22T21:03:35.567Z,2.30
2022-11-22T21:06:02.773Z,2.30
2022-11-22T21:08:29.784Z,2.30
2022-11-22T21:11:17.396Z,2.30
2022-11-22T21:13:44.471Z,2.30
2022-11-22T21:16:23.209Z,2.30
2022-11-22T21:18:55.411Z,2.30
2022-11-22T21:21:23.847Z,2.30
2022-11-22T21:23:55.973Z,2.20
2022-11-22T21:26:24.594Z,2.20
2022-11-22T21:28:52.349Z,2.30
2022-11-22T21:31:20.445Z,2.30
2022-11-22T21:33:48.057Z,2.30
2022-11-22T21:36:15.050Z,2.30
2022-11-22T21:38:41.762Z,2.30
2022-11-22T21:44:00.498Z,2.30
2022-11-22T21:46:27.174Z,2.20
2022-11-22T21:48:53.980Z,2.20
2022-11-22T21:51:20.635Z,2.10
2022-11-22T21:53:47.361Z,2.10
2022-11-22T21:56:14.046Z,2.10
2022-11-22T21:58:42.325Z,2.00
2022-11-22T22:01:13.851Z,2.00
2022-11-22T22:03:42.334Z,2.00
2022-11-22T22:06:09.004Z,1.90
2022-11-22T22:08:36.059Z,1.90
2022-11-22T22:11:04.039Z,1.90
2022-11-22T22:13:31.186Z,1.90
2022-11-22T22:16:00.266Z,1.90
2022-11-22T22:18:34.851Z,1.90
2022-11-22T22:21:12.609Z,1.90
2022-11-22T22:23:40.536Z,1.80
2022-11-22T22:26:12.438Z,1.80
2022-11-22T22:28:39.947Z,1.90
2022-11-22T22:31:15.616Z,1.80
2022-11-22T22:33:42.807Z,1.80
2022-11-22T22:36:10.554Z,1.70
2022-11-22T22:38:37.508Z,1.70
2022-11-22T22:41:05.657Z,1.70
2022-11-22T22:43:35.171Z,1.70
2022-11-22T22:46:14.420Z,1.70
2022-11-22T22:48:41.798Z,1.60
2022-11-22T22:51:14.959Z,1.60
2022-11-22T22:53:42.395Z,1.60
2022-11-22T22:56:10.576Z,1.60
2022-11-22T22:58:37.250Z,1.60
2022-11-22T23:01:04.789Z,1.50
2022-11-22T23:03:31.640Z,1.50
2022-11-22T23:05:59.041Z,1.50
2022-11-22T23:08:25.750Z,1.50
2022-11-22T23:10:52.451Z,1.40
2022-11-22T23:13:19.140Z,1.40
2022-11-22T23:15:58.068Z,1.40
2022-11-22T23:18:25.280Z,1.40
2022-11-22T23:20:52.190Z,1.40
2022-11-22T23:23:18.890Z,1.40
2022-11-22T23:25:45.545Z,1.30
2022-11-22T23:28:12.246Z,1.30
2022-11-22T23:30:38.913Z,1.30
2022-11-22T23:33:05.543Z,1.30
2022-11-22T23:35:35.105Z,1.30
2022-11-22T23:38:01.891Z,1.30
2022-11-22T23:40:29.123Z,1.30
2022-11-22T23:42:58.910Z,1.30
2022-11-22T23:45:25.566Z,1.30
2022-11-22T23:47:52.609Z,1.30
2022-11-22T23:50:19.715Z,1.30
2022-11-22T23:52:46.513Z,1.20
2022-11-22T23:55:13.159Z,1.30
2022-11-22T23:57:39.841Z,1.20
